sensor_id;sensor_type;location;lat;lon;timestamp;pressure;altitude;pressure_sealevel;temperature;humidity
51359;BME280;37448;51.588;7.248;2022-08-02T00:00:48;101144.81;;;15.96;97.65
51359;BME280;37448;51.588;7.248;2022-08-02T00:03:18;101157.06;;;15.88;98.36
51359;BME280;37448;51.588;7.248;2022-08-02T00:05:48;101154.25;;;15.81;98.38
51359;BME280;37448;51.588;7.248;2022-08-02T00:08:20;101158.19;;;15.76;98.16
51359;BME280;37448;51.588;7.248;2022-08-02T00:10:50;101163.38;;;15.81;98.05
51359;BME280;37448;51.588;7.248;2022-08-02T00:13:21;101160.19;;;15.83;98.03
51359;BME280;37448;51.588;7.248;2022-08-02T00:15:51;101158.97;;;15.77;98.77
51359;BME280;37448;51.588;7.248;2022-08-02T00:18:21;101155.00;;;15.74;99.18
51359;BME280;37448;51.588;7.248;2022-08-02T00:20:52;101161.72;;;15.70;100.00
51359;BME280;37448;51.588;7.248;2022-08-02T00:23:22;101157.72;;;15.67;100.00
51359;BME280;37448;51.588;7.248;2022-08-02T00:25:52;101156.13;;;15.63;99.68
51359;BME280;37448;51.588;7.248;2022-08-02T00:28:24;101154.97;;;15.67;99.56
51359;BME280;37448;51.588;7.248;2022-08-02T00:30:56;101161.66;;;15.66;100.00
51359;BME280;37448;51.588;7.248;2022-08-02T00:33:27;101148.22;;;15.61;100.00
51359;BME280;37448;51.588;7.248;2022-08-02T00:35:57;101152.50;;;15.55;100.00
51359;BME280;37448;51.588;7.248;2022-08-02T00:38:27;101142.16;;;15.48;100.00
51359;BME280;37448;51.588;7.248;2022-08-02T00:40:58;101151.63;;;15.44;100.00
51359;BME280;37448;51.588;7.248;2022-08-02T00:43:28;101150.38;;;15.38;100.00
51359;BME280;37448;51.588;7.248;2022-08-02T00:45:59;101142.84;;;15.35;100.00
51359;BME280;37448;51.588;7.248;2022-08-02T00:48:29;101153.91;;;15.31;100.00
51359;BME280;37448;51.588;7.248;2022-08-02T00:51:00;101161.00;;;15.29;100.00
51359;BME280;37448;51.588;7.248;2022-08-02T00:53:31;101156.22;;;15.26;100.00
51359;BME280;37448;51.588;7.248;2022-08-02T00:56:02;101149.91;;;15.29;100.00
51359;BME280;37448;51.588;7.248;2022-08-02T00:58:32;101141.59;;;15.25;100.00
51359;BME280;37448;51.588;7.248;2022-08-02T01:01:03;101154.25;;;15.26;100.00
51359;BME280;37448;51.588;7.248;2022-08-02T01:03:33;101158.19;;;15.25;100.00
51359;BME280;37448;51.588;7.248;2022-08-02T01:06:04;101147.47;;;15.20;100.00
51359;BME280;37448;51.588;7.248;2022-08-02T01:08:39;101148.66;;;15.19;100.00
51359;BME280;37448;51.588;7.248;2022-08-02T01:11:09;101151.38;;;15.16;100.00
51359;BME280;37448;51.588;7.248;2022-08-02T01:13:40;101147.47;;;15.20;100.00
51359;BME280;37448;51.588;7.248;2022-08-02T01:16:15;101148.66;;;15.19;100.00
51359;BME280;37448;51.588;7.248;2022-08-02T01:18:52;101145.50;;;15.21;100.00
51359;BME280;37448;51.588;7.248;2022-08-02T01:24:34;101134.31;;;15.06;100.00
51359;BME280;37448;51.588;7.248;2022-08-02T01:27:28;101134.34;;;15.10;100.00
51359;BME280;37448;51.588;7.248;2022-08-02T01:30:02;101137.88;;;15.07;100.00
51359;BME280;37448;51.588;7.248;2022-08-02T01:32:36;101135.06;;;15.03;100.00
51359;BME280;37448;51.588;7.248;2022-08-02T01:35:13;101137.41;;;14.98;100.00
51359;BME280;37448;51.588;7.248;2022-08-02T01:37:50;101138.16;;;14.95;100.00
51359;BME280;37448;51.588;7.248;2022-08-02T01:40:30;101145.66;;;14.94;100.00
51359;BME280;37448;51.588;7.248;2022-08-02T01:43:02;101135.81;;;14.93;100.00
51359;BME280;37448;51.588;7.248;2022-08-02T01:45:34;101124.72;;;14.93;100.00
51359;BME280;37448;51.588;7.248;2022-08-02T01:48:08;101119.97;;;14.94;100.00
51359;BME280;37448;51.588;7.248;2022-08-02T01:50:40;101117.16;;;14.90;100.00
51359;BME280;37448;51.588;7.248;2022-08-02T01:53:11;101119.53;;;14.88;100.00
51359;BME280;37448;51.588;7.248;2022-08-02T01:55:45;101125.81;;;14.85;100.00
51359;BME280;37448;51.588;7.248;2022-08-02T01:58:16;101130.19;;;14.86;100.00
51359;BME280;37448;51.588;7.248;2022-08-02T02:00:48;101119.59;;;14.95;100.00
51359;BME280;37448;51.588;7.248;2022-08-02T02:03:21;101118.75;;;14.91;100.00
51359;BME280;37448;51.588;7.248;2022-08-02T02:05:55;101123.03;;;14.82;100.00
51359;BME280;37448;51.588;7.248;2022-08-02T02:08:28;101120.22;;;14.78;100.00
51359;BME280;37448;51.588;7.248;2022-08-02T02:11:01;101121.03;;;14.79;100.00
51359;BME280;37448;51.588;7.248;2022-08-02T02:13:32;101120.66;;;14.80;100.00
51359;BME280;37448;51.588;7.248;2022-08-02T02:16:04;101110.34;;;14.77;100.00
51359;BME280;37448;51.588;7.248;2022-08-02T02:18:39;101114.66;;;14.75;100.00
51359;BME280;37448;51.588;7.248;2022-08-02T02:21:11;101121.78;;;14.72;100.00
51359;BME280;37448;51.588;7.248;2022-08-02T02:23:41;101113.88;;;14.74;100.00
51359;BME280;37448;51.588;7.248;2022-08-02T02:26:14;101109.06;;;14.68;100.00
51359;BME280;37448;51.588;7.248;2022-08-02T02:28:50;101105.84;;;14.62;100.00
51359;BME280;37448;51.588;7.248;2022-08-02T02:31:22;101109.38;;;14.59;100.00
51359;BME280;37448;51.588;7.248;2022-08-02T02:34:03;101106.53;;;14.52;100.00
51359;BME280;37448;51.588;7.248;2022-08-02T02:36:36;101099.84;;;14.53;100.00
51359;BME280;37448;51.588;7.248;2022-08-02T02:39:07;101103.41;;;14.53;100.00
51359;BME280;37448;51.588;7.248;2022-08-02T02:41:42;101103.78;;;14.52;100.00
51359;BME280;37448;51.588;7.248;2022-08-02T02:44:17;101096.66;;;14.51;100.00
51359;BME280;37448;51.588;7.248;2022-08-02T02:46:51;101087.94;;;14.49;100.00
51359;BME280;37448;51.588;7.248;2022-08-02T02:49:23;101084.78;;;14.47;100.00
51359;BME280;37448;51.588;7.248;2022-08-02T02:51:55;101081.59;;;14.45;100.00
51359;BME280;37448;51.588;7.248;2022-08-02T02:54:27;101077.63;;;14.42;100.00
51359;BME280;37448;51.588;7.248;2022-08-02T02:56:59;101076.03;;;14.41;100.00
51359;BME280;37448;51.588;7.248;2022-08-02T02:59:32;101072.44;;;14.37;100.00
51359;BME280;37448;51.588;7.248;2022-08-02T03:02:03;101066.41;;;14.32;100.00
51359;BME280;37448;51.588;7.248;2022-08-02T03:04:34;101063.28;;;14.33;100.00
51359;BME280;37448;51.588;7.248;2022-08-02T03:07:05;101073.88;;;14.28;100.00
51359;BME280;37448;51.588;7.248;2022-08-02T03:09:35;101068.78;;;14.30;100.00
51359;BME280;37448;51.588;7.248;2022-08-02T03:12:08;101072.28;;;14.27;100.00
51359;BME280;37448;51.588;7.248;2022-08-02T03:14:42;101077.38;;;14.21;100.00
51359;BME280;37448;51.588;7.248;2022-08-02T03:17:12;101076.56;;;14.21;100.00
51359;BME280;37448;51.588;7.248;2022-08-02T03:19:44;101086.03;;;14.19;100.00
51359;BME280;37448;51.588;7.248;2022-08-02T03:22:14;101081.25;;;14.16;100.00
51359;BME280;37448;51.588;7.248;2022-08-02T03:24:45;101085.56;;;14.14;100.00
51359;BME280;37448;51.588;7.248;2022-08-02T03:27:15;101092.31;;;14.16;100.00
51359;BME280;37448;51.588;7.248;2022-08-02T03:29:45;101082.75;;;14.10;100.00
51359;BME280;37448;51.588;7.248;2022-08-02T03:32:16;101078.75;;;14.04;100.00
51359;BME280;37448;51.588;7.248;2022-08-02T03:34:46;101067.66;;;14.01;100.00
51359;BME280;37448;51.588;7.248;2022-08-02T03:37:17;101063.69;;;13.98;100.00
51359;BME280;37448;51.588;7.248;2022-08-02T03:39:48;101061.69;;;13.95;100.00
51359;BME280;37448;51.588;7.248;2022-08-02T03:42:20;101060.06;;;13.94;100.00
51359;BME280;37448;51.588;7.248;2022-08-02T03:44:52;101058.00;;;13.88;100.00
51359;BME280;37448;51.588;7.248;2022-08-02T03:47:23;101062.34;;;13.85;100.00
51359;BME280;37448;51.588;7.248;2022-08-02T03:49:54;101058.00;;;13.88;100.00
51359;BME280;37448;51.588;7.248;2022-08-02T03:52:25;101060.78;;;13.88;100.00
51359;BME280;37448;51.588;7.248;2022-08-02T03:54:56;101058.41;;;13.86;100.00
51359;BME280;37448;51.588;7.248;2022-08-02T03:57:27;101060.41;;;13.89;100.00
51359;BME280;37448;51.588;7.248;2022-08-02T03:59:57;101064.00;;;13.93;100.00
51359;BME280;37448;51.588;7.248;2022-08-02T04:02:27;101074.31;;;13.96;100.00
51359;BME280;37448;51.588;7.248;2022-08-02T04:04:58;101073.13;;;13.97;100.00
51359;BME280;37448;51.588;7.248;2022-08-02T04:07:28;101082.59;;;13.96;100.00
51359;BME280;37448;51.588;7.248;2022-08-02T04:09:59;101079.47;;;13.98;100.00
51359;BME280;37448;51.588;7.248;2022-08-02T04:12:29;101068.41;;;13.98;100.00
51359;BME280;37448;51.588;7.248;2022-08-02T04:15:00;101064.84;;;13.97;100.00
51359;BME280;37448;51.588;7.248;2022-08-02T04:17:33;101072.00;;;14.02;100.00
51359;BME280;37448;51.588;7.248;2022-08-02T04:20:12;101072.44;;;14.04;100.00
51359;BME280;37448;51.588;7.248;2022-08-02T04:25:33;101071.72;;;14.10;100.00
51359;BME280;37448;51.588;7.248;2022-08-02T04:28:05;101076.88;;;14.12;100.00
51359;BME280;37448;51.588;7.248;2022-08-02T04:30:37;101076.47;;;14.13;100.00
51359;BME280;37448;51.588;7.248;2022-08-02T04:33:08;101081.25;;;14.16;100.00
51359;BME280;37448;51.588;7.248;2022-08-02T04:35:39;101084.47;;;14.22;100.00
51359;BME280;37448;51.588;7.248;2022-08-02T04:38:12;101091.25;;;14.28;100.00
51359;BME280;37448;51.588;7.248;2022-08-02T04:40:50;101094.06;;;14.32;100.00
51359;BME280;37448;51.588;7.248;2022-08-02T04:43:22;101090.22;;;14.40;100.00
51359;BME280;37448;51.588;7.248;2022-08-02T04:45:53;101087.44;;;14.40;100.00
51359;BME280;37448;51.588;7.248;2022-08-02T04:48:24;101084.72;;;14.43;100.00
51359;BME280;37448;51.588;7.248;2022-08-02T04:50:54;101086.78;;;14.50;100.00
51359;BME280;37448;51.588;7.248;2022-08-02T04:53:25;101086.00;;;14.53;100.00
51359;BME280;37448;51.588;7.248;2022-08-02T04:55:55;101082.44;;;14.52;100.00
51359;BME280;37448;51.588;7.248;2022-08-02T04:58:25;101087.97;;;14.52;100.00
51359;BME280;37448;51.588;7.248;2022-08-02T05:00:56;101090.78;;;14.56;100.00
51359;BME280;37448;51.588;7.248;2022-08-02T05:03:26;101091.22;;;14.61;100.00
51359;BME280;37448;51.588;7.248;2022-08-02T05:05:56;101100.72;;;14.64;100.00
51359;BME280;37448;51.588;7.248;2022-08-02T05:08:27;101098.38;;;14.66;100.00
51359;BME280;37448;51.588;7.248;2022-08-02T05:10:58;101092.88;;;14.70;100.00
51359;BME280;37448;51.588;7.248;2022-08-02T05:13:28;101100.06;;;14.78;100.00
51359;BME280;37448;51.588;7.248;2022-08-02T05:15:59;101088.31;;;14.88;100.00
51359;BME280;37448;51.588;7.248;2022-08-02T05:18:31;101093.91;;;14.98;100.00
51359;BME280;37448;51.588;7.248;2022-08-02T05:21:01;101091.59;;;15.07;100.00
51359;BME280;37448;51.588;7.248;2022-08-02T05:23:32;101091.25;;;15.13;100.00
51359;BME280;37448;51.588;7.248;2022-08-02T05:26:02;101097.25;;;15.18;100.00
51359;BME280;37448;51.588;7.248;2022-08-02T05:28:33;101089.31;;;15.17;100.00
51359;BME280;37448;51.588;7.248;2022-08-02T05:31:03;101093.25;;;15.19;100.00
51359;BME280;37448;51.588;7.248;2022-08-02T05:33:33;101098.81;;;15.19;100.00
51359;BME280;37448;51.588;7.248;2022-08-02T05:36:04;101103.56;;;15.19;100.00
51359;BME280;37448;51.588;7.248;2022-08-02T05:38:34;101101.97;;;15.18;100.00
51359;BME280;37448;51.588;7.248;2022-08-02T05:41:05;101097.22;;;15.15;100.00
51359;BME280;37448;51.588;7.248;2022-08-02T05:43:35;101106.75;;;15.21;100.00
51359;BME280;37448;51.588;7.248;2022-08-02T05:46:05;101104.44;;;15.33;100.00
51359;BME280;37448;51.588;7.248;2022-08-02T05:48:36;101103.81;;;15.54;100.00
51359;BME280;37448;51.588;7.248;2022-08-02T05:51:11;101098.03;;;15.87;100.00
51359;BME280;37448;51.588;7.248;2022-08-02T05:53:50;101099.03;;;16.52;100.00
51359;BME280;37448;51.588;7.248;2022-08-02T05:56:31;101087.59;;;16.81;100.00
51359;BME280;37448;51.588;7.248;2022-08-02T05:59:04;101085.16;;;17.47;99.52
51359;BME280;37448;51.588;7.248;2022-08-02T06:01:39;101090.69;;;18.48;96.46
51359;BME280;37448;51.588;7.248;2022-08-02T06:04:19;101099.38;;;19.53;89.25
51359;BME280;37448;51.588;7.248;2022-08-02T06:06:55;101101.78;;;20.49;85.91
51359;BME280;37448;51.588;7.248;2022-08-02T06:09:26;101108.03;;;21.07;80.95
51359;BME280;37448;51.588;7.248;2022-08-02T06:11:58;101104.09;;;21.91;74.25
51359;BME280;37448;51.588;7.248;2022-08-02T06:14:32;101118.03;;;22.50;68.99
51359;BME280;37448;51.588;7.248;2022-08-02T06:17:03;101104.41;;;21.96;74.27
51359;BME280;37448;51.588;7.248;2022-08-02T06:19:36;101104.13;;;22.62;71.51
51359;BME280;37448;51.588;7.248;2022-08-02T06:22:07;101105.69;;;22.47;74.17
51359;BME280;37448;51.588;7.248;2022-08-02T06:24:48;101107.41;;;22.61;71.72
51359;BME280;37448;51.588;7.248;2022-08-02T06:27:20;101118.81;;;23.18;67.75
51359;BME280;37448;51.588;7.248;2022-08-02T06:29:53;101105.16;;;23.20;68.63
51359;BME280;37448;51.588;7.248;2022-08-02T06:32:25;101112.28;;;23.54;68.85
51359;BME280;37448;51.588;7.248;2022-08-02T06:34:56;101108.44;;;23.77;69.07
51359;BME280;37448;51.588;7.248;2022-08-02T06:37:53;101106.97;;;23.72;65.75
51359;BME280;37448;51.588;7.248;2022-08-02T06:40:29;101106.81;;;23.92;67.17
51359;BME280;37448;51.588;7.248;2022-08-02T06:45:42;101101.84;;;23.83;67.82
51359;BME280;37448;51.588;7.248;2022-08-02T06:48:13;101099.91;;;24.09;66.26
51359;BME280;37448;51.588;7.248;2022-08-02T06:50:43;101100.06;;;24.31;68.35
51359;BME280;37448;51.588;7.248;2022-08-02T06:53:14;101094.34;;;24.47;67.02
51359;BME280;37448;51.588;7.248;2022-08-02T06:55:44;101103.44;;;24.26;68.89
51359;BME280;37448;51.588;7.248;2022-08-02T06:58:14;101109.63;;;24.46;68.72
51359;BME280;37448;51.588;7.248;2022-08-02T07:00:46;101110.28;;;25.00;65.89
51359;BME280;37448;51.588;7.248;2022-08-02T07:03:17;101104.22;;;24.26;66.26
51359;BME280;37448;51.588;7.248;2022-08-02T07:05:47;101108.63;;;24.78;63.28
51359;BME280;37448;51.588;7.248;2022-08-02T07:08:19;101098.09;;;25.51;62.80
51359;BME280;37448;51.588;7.248;2022-08-02T07:10:50;101099.06;;;25.69;64.89
51359;BME280;37448;51.588;7.248;2022-08-02T07:13:20;101099.03;;;26.13;63.23
51359;BME280;37448;51.588;7.248;2022-08-02T07:15:51;101103.59;;;26.41;60.61
51359;BME280;37448;51.588;7.248;2022-08-02T07:18:22;101100.25;;;26.64;62.42
51359;BME280;37448;51.588;7.248;2022-08-02T07:20:53;101101.16;;;26.21;62.68
51359;BME280;37448;51.588;7.248;2022-08-02T07:23:23;101096.44;;;26.49;59.53
51359;BME280;37448;51.588;7.248;2022-08-02T07:25:53;101104.22;;;26.76;60.94
51359;BME280;37448;51.588;7.248;2022-08-02T07:28:24;101107.25;;;26.91;58.19
51359;BME280;37448;51.588;7.248;2022-08-02T07:30:54;101106.53;;;26.68;59.86
51359;BME280;37448;51.588;7.248;2022-08-02T07:33:25;101099.25;;;26.49;60.23
51359;BME280;37448;51.588;7.248;2022-08-02T07:35:56;101102.09;;;26.58;58.26
51359;BME280;37448;51.588;7.248;2022-08-02T07:38:27;101099.81;;;26.75;56.98
51359;BME280;37448;51.588;7.248;2022-08-02T07:40:58;101102.59;;;27.06;58.81
51359;BME280;37448;51.588;7.248;2022-08-02T07:43:28;101095.88;;;27.21;58.19
51359;BME280;37448;51.588;7.248;2022-08-02T07:45:58;101100.28;;;27.68;53.48
51359;BME280;37448;51.588;7.248;2022-08-02T07:48:29;101098.88;;;27.91;51.58
51359;BME280;37448;51.588;7.248;2022-08-02T07:50:59;101098.19;;;28.23;51.05
51359;BME280;37448;51.588;7.248;2022-08-02T07:53:29;101095.19;;;28.27;50.21
51359;BME280;37448;51.588;7.248;2022-08-02T07:56:00;101096.88;;;28.42;45.98
51359;BME280;37448;51.588;7.248;2022-08-02T07:58:30;101094.09;;;28.24;48.35
51359;BME280;37448;51.588;7.248;2022-08-02T08:01:00;101099.91;;;28.72;44.47
51359;BME280;37448;51.588;7.248;2022-08-02T08:03:31;101096.44;;;29.00;41.04
51359;BME280;37448;51.588;7.248;2022-08-02T08:06:01;101101.47;;;29.20;43.82
51359;BME280;37448;51.588;7.248;2022-08-02T08:08:33;101085.78;;;28.72;45.47
51359;BME280;37448;51.588;7.248;2022-08-02T08:11:04;101088.66;;;28.86;41.91
51359;BME280;37448;51.588;7.248;2022-08-02T08:13:35;101087.53;;;29.40;43.38
51359;BME280;37448;51.588;7.248;2022-08-02T08:16:05;101087.28;;;29.29;41.56
51359;BME280;37448;51.588;7.248;2022-08-02T08:18:36;101084.66;;;29.02;41.47
51359;BME280;37448;51.588;7.248;2022-08-02T08:21:06;101080.03;;;29.28;39.38
51359;BME280;37448;51.588;7.248;2022-08-02T08:23:36;101077.34;;;28.86;42.07
51359;BME280;37448;51.588;7.248;2022-08-02T08:26:07;101078.94;;;29.49;40.26
51359;BME280;37448;51.588;7.248;2022-08-02T08:28:37;101074.22;;;30.14;39.00
51359;BME280;37448;51.588;7.248;2022-08-02T08:31:08;101071.59;;;30.11;40.54
51359;BME280;37448;51.588;7.248;2022-08-02T08:33:38;101075.88;;;30.50;38.23
51359;BME280;37448;51.588;7.248;2022-08-02T08:36:08;101071.22;;;30.03;40.36
51359;BME280;37448;51.588;7.248;2022-08-02T08:38:39;101066.69;;;29.82;40.25
51359;BME280;37448;51.588;7.248;2022-08-02T08:41:09;101064.53;;;29.77;41.12
51359;BME280;37448;51.588;7.248;2022-08-02T08:43:39;101075.66;;;29.66;40.43
51359;BME280;37448;51.588;7.248;2022-08-02T08:46:23;101072.13;;;29.56;39.39
51359;BME280;37448;51.588;7.248;2022-08-02T08:49:05;101064.47;;;30.15;37.33
51359;BME280;37448;51.588;7.248;2022-08-02T08:51:37;101067.03;;;30.63;37.76
51359;BME280;37448;51.588;7.248;2022-08-02T08:54:14;101073.38;;;30.08;37.48
51359;BME280;37448;51.588;7.248;2022-08-02T08:56:45;101076.97;;;29.94;35.55
51359;BME280;37448;51.588;7.248;2022-08-02T08:59:16;101074.09;;;30.53;37.39
51359;BME280;37448;51.588;7.248;2022-08-02T09:01:48;101068.09;;;30.16;36.81
51359;BME280;37448;51.588;7.248;2022-08-02T09:04:19;101068.63;;;29.76;36.46
51359;BME280;37448;51.588;7.248;2022-08-02T09:06:49;101068.34;;;30.32;38.05
51359;BME280;37448;51.588;7.248;2022-08-02T09:09:20;101063.75;;;30.50;37.68
51359;BME280;37448;51.588;7.248;2022-08-02T09:11:50;101057.53;;;30.16;37.35
51359;BME280;37448;51.588;7.248;2022-08-02T09:14:28;101050.75;;;30.78;35.88
51359;BME280;37448;51.588;7.248;2022-08-02T09:17:09;101054.75;;;30.36;35.29
51359;BME280;37448;51.588;7.248;2022-08-02T09:19:41;101051.06;;;31.00;35.97
51359;BME280;37448;51.588;7.248;2022-08-02T09:22:13;101058.25;;;30.61;36.42
51359;BME280;37448;51.588;7.248;2022-08-02T09:24:46;101048.22;;;30.80;36.11
51359;BME280;37448;51.588;7.248;2022-08-02T09:27:19;101050.25;;;30.45;37.80
51359;BME280;37448;51.588;7.248;2022-08-02T09:29:52;101049.66;;;31.10;34.55
51359;BME280;37448;51.588;7.248;2022-08-02T09:32:23;101046.91;;;30.81;35.32
51359;BME280;37448;51.588;7.248;2022-08-02T09:34:53;101047.31;;;31.09;36.22
51359;BME280;37448;51.588;7.248;2022-08-02T09:37:28;101052.66;;;31.47;35.23
51359;BME280;37448;51.588;7.248;2022-08-02T09:39:59;101053.31;;;30.76;34.56
51359;BME280;37448;51.588;7.248;2022-08-02T09:42:31;101043.34;;;31.67;34.14
51359;BME280;37448;51.588;7.248;2022-08-02T09:45:02;101041.47;;;30.98;36.14
51359;BME280;37448;51.588;7.248;2022-08-02T09:47:32;101048.03;;;31.04;35.70
51359;BME280;37448;51.588;7.248;2022-08-02T09:50:03;101046.09;;;31.36;35.33
51359;BME280;37448;51.588;7.248;2022-08-02T09:52:35;101043.91;;;31.51;36.87
51359;BME280;37448;51.588;7.248;2022-08-02T09:55:05;101056.84;;;31.52;35.62
51359;BME280;37448;51.588;7.248;2022-08-02T09:57:35;101047.28;;;31.75;35.41
51359;BME280;37448;51.588;7.248;2022-08-02T10:00:09;101054.47;;;31.70;36.09
51359;BME280;37448;51.588;7.248;2022-08-02T10:05:51;101042.97;;;31.34;37.24
51359;BME280;37448;51.588;7.248;2022-08-02T10:08:28;101039.78;;;30.51;38.92
51359;BME280;37448;51.588;7.248;2022-08-02T10:10:59;101035.91;;;30.33;40.00
51359;BME280;37448;51.588;7.248;2022-08-02T10:13:32;101036.84;;;30.30;40.75
51359;BME280;37448;51.588;7.248;2022-08-02T10:16:03;101038.41;;;29.05;43.01
51359;BME280;37448;51.588;7.248;2022-08-02T10:18:35;101039.88;;;29.54;41.97
51359;BME280;37448;51.588;7.248;2022-08-02T10:21:15;101037.69;;;30.16;41.72
51359;BME280;37448;51.588;7.248;2022-08-02T10:23:48;101036.75;;;30.39;39.90
51359;BME280;37448;51.588;7.248;2022-08-02T10:26:19;101029.75;;;30.90;37.62
51359;BME280;37448;51.588;7.248;2022-08-02T10:28:51;101027.47;;;30.74;39.10
51359;BME280;37448;51.588;7.248;2022-08-02T10:31:27;101025.47;;;31.61;36.93
51359;BME280;37448;51.588;7.248;2022-08-02T10:34:02;101029.22;;;31.52;37.96
51359;BME280;37448;51.588;7.248;2022-08-02T10:36:36;101022.44;;;30.63;40.00
51359;BME280;37448;51.588;7.248;2022-08-02T10:39:08;101023.25;;;30.34;39.01
51359;BME280;37448;51.588;7.248;2022-08-02T10:41:40;101024.63;;;30.54;39.90
51359;BME280;37448;51.588;7.248;2022-08-02T10:44:40;101020.09;;;30.12;39.83
51359;BME280;37448;51.588;7.248;2022-08-02T10:52:30;101009.41;;;30.92;39.75
51359;BME280;37448;51.588;7.248;2022-08-02T10:55:09;101013.88;;;31.18;37.63
51359;BME280;37448;51.588;7.248;2022-08-02T10:57:39;101015.06;;;30.92;38.17
51359;BME280;37448;51.588;7.248;2022-08-02T11:00:39;101013.72;;;31.53;36.80
51359;BME280;37448;51.588;7.248;2022-08-02T11:03:34;101021.78;;;31.55;37.75
51359;BME280;37448;51.588;7.248;2022-08-02T11:06:09;101006.81;;;32.11;36.29
51359;BME280;37448;51.588;7.248;2022-08-02T11:08:40;101020.91;;;31.69;37.35
51359;BME280;37448;51.588;7.248;2022-08-02T11:14:03;101008.91;;;31.13;36.43
51359;BME280;37448;51.588;7.248;2022-08-02T11:19:26;101007.06;;;32.13;34.00
51359;BME280;37448;51.588;7.248;2022-08-02T11:22:03;100995.06;;;31.47;36.81
51359;BME280;37448;51.588;7.248;2022-08-02T11:24:39;100997.34;;;31.43;37.32
51359;BME280;37448;51.588;7.248;2022-08-02T11:27:18;100994.00;;;31.18;37.06
51359;BME280;37448;51.588;7.248;2022-08-02T11:29:48;100982.66;;;30.43;39.92
51359;BME280;37448;51.588;7.248;2022-08-02T11:32:20;100985.91;;;30.51;40.04
51359;BME280;37448;51.588;7.248;2022-08-02T11:34:52;100990.59;;;30.39;38.89
51359;BME280;37448;51.588;7.248;2022-08-02T11:37:30;100982.63;;;30.23;38.65
51359;BME280;37448;51.588;7.248;2022-08-02T11:40:01;100997.56;;;30.93;39.04
51359;BME280;37448;51.588;7.248;2022-08-02T11:45:05;100995.00;;;30.75;37.44
51359;BME280;37448;51.588;7.248;2022-08-02T11:47:50;100994.97;;;30.05;38.76
51359;BME280;37448;51.588;7.248;2022-08-02T11:50:21;100992.38;;;29.87;39.83
51359;BME280;37448;51.588;7.248;2022-08-02T11:52:54;100985.03;;;29.66;40.52
51359;BME280;37448;51.588;7.248;2022-08-02T11:55:29;100982.56;;;29.29;41.59
51359;BME280;37448;51.588;7.248;2022-08-02T11:58:02;100985.94;;;29.19;42.13
51359;BME280;37448;51.588;7.248;2022-08-02T12:00:34;100979.66;;;29.53;41.08
51359;BME280;37448;51.588;7.248;2022-08-02T12:03:05;100982.78;;;29.55;41.39
51359;BME280;37448;51.588;7.248;2022-08-02T12:05:35;100975.06;;;29.70;41.10
51359;BME280;37448;51.588;7.248;2022-08-02T12:08:06;100975.94;;;29.76;39.75
51359;BME280;37448;51.588;7.248;2022-08-02T12:10:46;100964.78;;;28.90;44.97
51359;BME280;37448;51.588;7.248;2022-08-02T12:13:16;100969.91;;;29.16;43.78
51359;BME280;37448;51.588;7.248;2022-08-02T12:15:47;100957.19;;;29.35;41.85
51359;BME280;37448;51.588;7.248;2022-08-02T12:18:20;100953.34;;;29.23;42.17
51359;BME280;37448;51.588;7.248;2022-08-02T12:21:24;100950.84;;;29.69;43.74
51359;BME280;37448;51.588;7.248;2022-08-02T12:23:55;100954.63;;;30.30;38.06
51359;BME280;37448;51.588;7.248;2022-08-02T12:26:26;100959.50;;;30.45;37.37
51359;BME280;37448;51.588;7.248;2022-08-02T12:28:58;100960.09;;;30.49;38.54
51359;BME280;37448;51.588;7.248;2022-08-02T12:31:47;100963.19;;;30.16;37.61
51359;BME280;37448;51.588;7.248;2022-08-02T12:34:17;100963.22;;;30.71;39.30
51359;BME280;37448;51.588;7.248;2022-08-02T12:36:59;100956.53;;;30.54;38.63
51359;BME280;37448;51.588;7.248;2022-08-02T12:42:06;100957.75;;;30.88;37.65
51359;BME280;37448;51.588;7.248;2022-08-02T12:44:38;100963.19;;;30.91;37.68
51359;BME280;37448;51.588;7.248;2022-08-02T12:47:18;100965.59;;;30.98;36.57
51359;BME280;37448;51.588;7.248;2022-08-02T12:50:09;100979.75;;;31.13;37.91
51359;BME280;37448;51.588;7.248;2022-08-02T12:52:40;100967.75;;;31.03;37.75
51359;BME280;37448;51.588;7.248;2022-08-02T12:55:18;100975.41;;;31.17;36.56
51359;BME280;37448;51.588;7.248;2022-08-02T12:57:51;100962.59;;;31.27;38.71
51359;BME280;37448;51.588;7.248;2022-08-02T13:00:23;100958.88;;;31.42;36.03
51359;BME280;37448;51.588;7.248;2022-08-02T13:02:54;100955.31;;;31.47;35.77
51359;BME280;37448;51.588;7.248;2022-08-02T13:05:25;100960.34;;;31.11;35.31
51359;BME280;37448;51.588;7.248;2022-08-02T13:07:58;100952.41;;;30.95;36.05
51359;BME280;37448;51.588;7.248;2022-08-02T13:10:29;100959.31;;;30.89;36.21
51359;BME280;37448;51.588;7.248;2022-08-02T13:12:59;100942.00;;;30.46;37.81
51359;BME280;37448;51.588;7.248;2022-08-02T13:15:31;100945.69;;;30.17;38.08
51359;BME280;37448;51.588;7.248;2022-08-02T13:18:01;100942.59;;;30.35;37.36
51359;BME280;37448;51.588;7.248;2022-08-02T13:20:32;100941.00;;;30.49;37.67
51359;BME280;37448;51.588;7.248;2022-08-02T13:23:02;100933.97;;;31.05;35.82
51359;BME280;37448;51.588;7.248;2022-08-02T13:25:32;100936.69;;;30.74;36.18
51359;BME280;37448;51.588;7.248;2022-08-02T13:28:03;100920.94;;;30.53;36.86
51359;BME280;37448;51.588;7.248;2022-08-02T13:30:33;100926.63;;;30.53;36.23
51359;BME280;37448;51.588;7.248;2022-08-02T13:33:04;100925.72;;;31.07;35.34
51359;BME280;37448;51.588;7.248;2022-08-02T13:35:34;100924.22;;;30.66;34.87
51359;BME280;37448;51.588;7.248;2022-08-02T13:38:04;100930.63;;;30.87;35.87
51359;BME280;37448;51.588;7.248;2022-08-02T13:40:36;100927.16;;;30.97;35.52